sensor_id;sensor_type;location;lat;lon;timestamp;P1;durP1;ratioP1;P2;durP2;ratioP2
19043;SDS011;9654;52.302;8.120;2023-01-13T00:00:24;3.60;;;1.57;;
19043;SDS011;9654;52.302;8.120;2023-01-13T00:02:50;3.27;;;1.50;;
19043;SDS011;9654;52.302;8.120;2023-01-13T00:05:17;5.33;;;2.10;;
19043;SDS011;9654;52.302;8.120;2023-01-13T00:07:44;3.83;;;1.50;;
19043;SDS011;9654;52.302;8.120;2023-01-13T00:10:12;7.17;;;1.50;;
19043;SDS011;9654;52.302;8.120;2023-01-13T00:12:41;3.37;;;1.30;;
19043;SDS011;9654;52.302;8.120;2023-01-13T00:15:08;2.83;;;1.20;;
19043;SDS011;9654;52.302;8.120;2023-01-13T00:17:37;4.53;;;1.43;;
19043;SDS011;9654;52.302;8.120;2023-01-13T00:20:05;3.53;;;1.80;;
19043;SDS011;9654;52.302;8.120;2023-01-13T00:22:32;2.50;;;1.47;;
19043;SDS011;9654;52.302;8.120;2023-01-13T00:24:59;2.63;;;1.93;;
19043;SDS011;9654;52.302;8.120;2023-01-13T00:27:28;2.30;;;1.30;;
19043;SDS011;9654;52.302;8.120;2023-01-13T00:29:57;2.20;;;1.27;;
19043;SDS011;9654;52.302;8.120;2023-01-13T00:32:24;4.33;;;1.30;;
19043;SDS011;9654;52.302;8.120;2023-01-13T00:34:51;1.50;;;1.20;;
19043;SDS011;9654;52.302;8.120;2023-01-13T00:37:18;4.07;;;1.07;;
19043;SDS011;9654;52.302;8.120;2023-01-13T00:39:44;1.67;;;0.90;;
19043;SDS011;9654;52.302;8.120;2023-01-13T00:42:11;1.40;;;0.90;;
19043;SDS011;9654;52.302;8.120;2023-01-13T00:44:57;4.40;;;1.20;;
19043;SDS011;9654;52.302;8.120;2023-01-13T00:47:24;3.50;;;1.00;;
19043;SDS011;9654;52.302;8.120;2023-01-13T00:49:50;5.67;;;1.67;;
19043;SDS011;9654;52.302;8.120;2023-01-13T00:52:17;1.77;;;0.97;;
19043;SDS011;9654;52.302;8.120;2023-01-13T00:54:44;6.03;;;1.40;;
19043;SDS011;9654;52.302;8.120;2023-01-13T00:57:11;3.13;;;1.20;;
19043;SDS011;9654;52.302;8.120;2023-01-13T00:59:39;4.27;;;1.00;;
19043;SDS011;9654;52.302;8.120;2023-01-13T01:02:07;5.03;;;1.40;;
19043;SDS011;9654;52.302;8.120;2023-01-13T01:04:34;2.37;;;1.10;;
19043;SDS011;9654;52.302;8.120;2023-01-13T01:07:00;3.37;;;1.27;;
19043;SDS011;9654;52.302;8.120;2023-01-13T01:09:27;4.47;;;1.40;;
19043;SDS011;9654;52.302;8.120;2023-01-13T01:11:57;3.07;;;1.30;;
19043;SDS011;9654;52.302;8.120;2023-01-13T01:14:24;5.33;;;1.40;;
19043;SDS011;9654;52.302;8.120;2023-01-13T01:16:52;7.27;;;1.83;;
19043;SDS011;9654;52.302;8.120;2023-01-13T01:19:20;9.50;;;1.60;;
19043;SDS011;9654;52.302;8.120;2023-01-13T01:21:47;5.43;;;1.60;;
19043;SDS011;9654;52.302;8.120;2023-01-13T01:24:14;8.13;;;1.90;;
19043;SDS011;9654;52.302;8.120;2023-01-13T01:26:41;2.80;;;1.60;;
19043;SDS011;9654;52.302;8.120;2023-01-13T01:29:09;8.23;;;1.77;;
19043;SDS011;9654;52.302;8.120;2023-01-13T01:31:38;8.93;;;1.83;;
19043;SDS011;9654;52.302;8.120;2023-01-13T01:34:04;4.70;;;2.23;;
19043;SDS011;9654;52.302;8.120;2023-01-13T01:36:32;7.37;;;2.27;;
19043;SDS011;9654;52.302;8.120;2023-01-13T01:39:00;14.40;;;3.63;;
19043;SDS011;9654;52.302;8.120;2023-01-13T01:41:29;8.43;;;1.70;;
19043;SDS011;9654;52.302;8.120;2023-01-13T01:43:57;3.33;;;1.73;;
19043;SDS011;9654;52.302;8.120;2023-01-13T01:46:31;5.93;;;1.53;;
19043;SDS011;9654;52.302;8.120;2023-01-13T01:49:04;8.30;;;2.53;;
19043;SDS011;9654;52.302;8.120;2023-01-13T01:51:38;10.00;;;2.23;;
19043;SDS011;9654;52.302;8.120;2023-01-13T01:54:10;5.60;;;2.10;;
19043;SDS011;9654;52.302;8.120;2023-01-13T01:56:40;8.43;;;2.13;;
19043;SDS011;9654;52.302;8.120;2023-01-13T01:59:09;13.23;;;2.13;;
19043;SDS011;9654;52.302;8.120;2023-01-13T02:01:36;5.97;;;1.83;;
19043;SDS011;9654;52.302;8.120;2023-01-13T02:04:06;9.23;;;2.00;;
19043;SDS011;9654;52.302;8.120;2023-01-13T02:06:38;7.33;;;2.53;;
19043;SDS011;9654;52.302;8.120;2023-01-13T02:09:07;7.60;;;2.20;;
19043;SDS011;9654;52.302;8.120;2023-01-13T02:11:34;7.77;;;2.10;;
19043;SDS011;9654;52.302;8.120;2023-01-13T02:14:19;13.93;;;2.70;;
19043;SDS011;9654;52.302;8.120;2023-01-13T02:16:51;9.83;;;2.60;;
19043;SDS011;9654;52.302;8.120;2023-01-13T02:22:41;7.97;;;2.30;;
19043;SDS011;9654;52.302;8.120;2023-01-13T02:25:30;13.07;;;2.77;;
19043;SDS011;9654;52.302;8.120;2023-01-13T02:31:02;10.17;;;3.57;;
19043;SDS011;9654;52.302;8.120;2023-01-13T02:33:56;11.67;;;3.20;;
19043;SDS011;9654;52.302;8.120;2023-01-13T02:36:30;15.70;;;2.67;;
19043;SDS011;9654;52.302;8.120;2023-01-13T02:39:05;13.63;;;2.63;;
19043;SDS011;9654;52.302;8.120;2023-01-13T02:41:38;10.40;;;2.53;;
19043;SDS011;9654;52.302;8.120;2023-01-13T02:44:36;13.60;;;3.17;;
19043;SDS011;9654;52.302;8.120;2023-01-13T02:47:15;11.47;;;2.63;;
19043;SDS011;9654;52.302;8.120;2023-01-13T02:49:45;13.27;;;3.73;;
19043;SDS011;9654;52.302;8.120;2023-01-13T02:52:16;11.00;;;3.43;;
19043;SDS011;9654;52.302;8.120;2023-01-13T02:54:50;12.97;;;3.57;;
19043;SDS011;9654;52.302;8.120;2023-01-13T02:57:20;18.37;;;4.50;;
19043;SDS011;9654;52.302;8.120;2023-01-13T02:59:49;17.13;;;3.03;;
19043;SDS011;9654;52.302;8.120;2023-01-13T03:02:20;19.47;;;3.23;;
19043;SDS011;9654;52.302;8.120;2023-01-13T03:04:49;14.27;;;2.67;;
19043;SDS011;9654;52.302;8.120;2023-01-13T03:07:25;16.20;;;4.30;;
19043;SDS011;9654;52.302;8.120;2023-01-13T03:10:28;16.37;;;3.73;;
19043;SDS011;9654;52.302;8.120;2023-01-13T03:13:02;17.13;;;3.03;;
19043;SDS011;9654;52.302;8.120;2023-01-13T03:15:42;15.47;;;3.10;;
19043;SDS011;9654;52.302;8.120;2023-01-13T03:18:18;17.10;;;3.43;;
19043;SDS011;9654;52.302;8.120;2023-01-13T03:23:46;17.87;;;3.10;;
19043;SDS011;9654;52.302;8.120;2023-01-13T03:26:18;17.93;;;3.40;;
19043;SDS011;9654;52.302;8.120;2023-01-13T03:28:53;28.63;;;3.90;;
19043;SDS011;9654;52.302;8.120;2023-01-13T03:31:24;19.80;;;3.37;;
19043;SDS011;9654;52.302;8.120;2023-01-13T03:33:58;17.97;;;3.47;;
19043;SDS011;9654;52.302;8.120;2023-01-13T03:36:27;12.87;;;3.50;;
19043;SDS011;9654;52.302;8.120;2023-01-13T03:38:57;26.07;;;4.17;;
19043;SDS011;9654;52.302;8.120;2023-01-13T03:41:29;16.07;;;3.57;;
19043;SDS011;9654;52.302;8.120;2023-01-13T03:44:01;20.50;;;3.40;;
19043;SDS011;9654;52.302;8.120;2023-01-13T03:46:49;27.63;;;4.93;;
19043;SDS011;9654;52.302;8.120;2023-01-13T03:49:25;17.30;;;3.57;;
19043;SDS011;9654;52.302;8.120;2023-01-13T03:51:57;24.23;;;4.00;;
19043;SDS011;9654;52.302;8.120;2023-01-13T03:54:29;20.43;;;3.83;;
19043;SDS011;9654;52.302;8.120;2023-01-13T03:56:59;21.63;;;4.00;;
19043;SDS011;9654;52.302;8.120;2023-01-13T03:59:30;28.77;;;4.57;;
19043;SDS011;9654;52.302;8.120;2023-01-13T04:02:02;18.07;;;4.10;;
19043;SDS011;9654;52.302;8.120;2023-01-13T04:04:34;29.10;;;3.50;;
19043;SDS011;9654;52.302;8.120;2023-01-13T04:07:06;22.80;;;4.03;;
19043;SDS011;9654;52.302;8.120;2023-01-13T04:09:43;20.27;;;3.43;;
19043;SDS011;9654;52.302;8.120;2023-01-13T04:12:16;17.83;;;3.40;;
19043;SDS011;9654;52.302;8.120;2023-01-13T04:14:48;15.70;;;2.93;;
19043;SDS011;9654;52.302;8.120;2023-01-13T04:17:17;20.67;;;4.53;;
19043;SDS011;9654;52.302;8.120;2023-01-13T04:19:45;21.10;;;3.67;;
19043;SDS011;9654;52.302;8.120;2023-01-13T04:22:12;14.50;;;3.47;;
19043;SDS011;9654;52.302;8.120;2023-01-13T04:24:39;21.43;;;3.37;;
19043;SDS011;9654;52.302;8.120;2023-01-13T04:27:05;23.87;;;4.07;;
19043;SDS011;9654;52.302;8.120;2023-01-13T04:29:32;28.77;;;3.63;;
19043;SDS011;9654;52.302;8.120;2023-01-13T04:31:59;18.30;;;4.40;;
19043;SDS011;9654;52.302;8.120;2023-01-13T04:34:26;20.73;;;3.37;;
19043;SDS011;9654;52.302;8.120;2023-01-13T04:36:54;24.80;;;4.67;;
19043;SDS011;9654;52.302;8.120;2023-01-13T04:39:20;22.10;;;3.00;;
19043;SDS011;9654;52.302;8.120;2023-01-13T04:41:47;19.30;;;3.40;;
19043;SDS011;9654;52.302;8.120;2023-01-13T04:44:22;27.33;;;4.33;;
19043;SDS011;9654;52.302;8.120;2023-01-13T04:46:49;26.27;;;4.10;;
19043;SDS011;9654;52.302;8.120;2023-01-13T04:49:16;23.43;;;3.60;;
19043;SDS011;9654;52.302;8.120;2023-01-13T04:51:43;22.10;;;3.27;;
19043;SDS011;9654;52.302;8.120;2023-01-13T04:54:11;18.87;;;3.23;;
19043;SDS011;9654;52.302;8.120;2023-01-13T04:56:37;18.83;;;3.30;;
19043;SDS011;9654;52.302;8.120;2023-01-13T04:59:04;28.13;;;5.77;;
19043;SDS011;9654;52.302;8.120;2023-01-13T05:01:31;28.63;;;3.97;;
19043;SDS011;9654;52.302;8.120;2023-01-13T05:03:58;17.80;;;2.97;;
19043;SDS011;9654;52.302;8.120;2023-01-13T05:06:24;28.10;;;4.70;;
19043;SDS011;9654;52.302;8.120;2023-01-13T05:08:51;23.90;;;4.40;;
19043;SDS011;9654;52.302;8.120;2023-01-13T05:11:19;21.27;;;4.43;;
19043;SDS011;9654;52.302;8.120;2023-01-13T05:14:04;22.97;;;3.37;;
19043;SDS011;9654;52.302;8.120;2023-01-13T05:16:45;25.67;;;4.17;;
19043;SDS011;9654;52.302;8.120;2023-01-13T05:19:25;20.10;;;4.07;;
19043;SDS011;9654;52.302;8.120;2023-01-13T05:21:52;27.80;;;3.57;;
19043;SDS011;9654;52.302;8.120;2023-01-13T05:24:36;22.60;;;3.37;;
19043;SDS011;9654;52.302;8.120;2023-01-13T05:27:22;19.57;;;3.97;;
19043;SDS011;9654;52.302;8.120;2023-01-13T05:29:48;20.37;;;3.43;;
19043;SDS011;9654;52.302;8.120;2023-01-13T05:32:15;18.40;;;3.73;;
19043;SDS011;9654;52.302;8.120;2023-01-13T05:34:42;24.70;;;3.93;;
19043;SDS011;9654;52.302;8.120;2023-01-13T05:37:09;22.67;;;3.57;;
19043;SDS011;9654;52.302;8.120;2023-01-13T05:39:37;23.17;;;3.47;;
19043;SDS011;9654;52.302;8.120;2023-01-13T05:42:17;25.37;;;4.30;;
19043;SDS011;9654;52.302;8.120;2023-01-13T05:45:03;18.47;;;4.00;;
19043;SDS011;9654;52.302;8.120;2023-01-13T05:47:31;25.13;;;4.13;;
19043;SDS011;9654;52.302;8.120;2023-01-13T05:49:57;22.17;;;3.77;;
19043;SDS011;9654;52.302;8.120;2023-01-13T05:52:24;17.27;;;4.17;;
19043;SDS011;9654;52.302;8.120;2023-01-13T05:54:51;24.23;;;3.53;;
19043;SDS011;9654;52.302;8.120;2023-01-13T05:57:17;21.40;;;3.63;;
19043;SDS011;9654;52.302;8.120;2023-01-13T05:59:44;27.97;;;4.63;;
19043;SDS011;9654;52.302;8.120;2023-01-13T06:02:12;27.37;;;3.60;;
19043;SDS011;9654;52.302;8.120;2023-01-13T06:04:39;17.83;;;3.27;;
19043;SDS011;9654;52.302;8.120;2023-01-13T06:07:06;20.77;;;3.47;;
19043;SDS011;9654;52.302;8.120;2023-01-13T06:09:33;21.07;;;3.50;;
19043;SDS011;9654;52.302;8.120;2023-01-13T06:11:59;18.33;;;2.97;;
19043;SDS011;9654;52.302;8.120;2023-01-13T06:14:26;22.47;;;3.53;;
19043;SDS011;9654;52.302;8.120;2023-01-13T06:17:03;13.60;;;3.10;;
19043;SDS011;9654;52.302;8.120;2023-01-13T06:19:32;15.00;;;3.23;;
19043;SDS011;9654;52.302;8.120;2023-01-13T06:22:00;18.83;;;2.83;;
19043;SDS011;9654;52.302;8.120;2023-01-13T06:24:33;13.67;;;3.20;;
19043;SDS011;9654;52.302;8.120;2023-01-13T06:27:01;10.97;;;2.67;;
19043;SDS011;9654;52.302;8.120;2023-01-13T06:29:29;13.93;;;3.07;;
19043;SDS011;9654;52.302;8.120;2023-01-13T06:31:56;12.90;;;2.40;;
19043;SDS011;9654;52.302;8.120;2023-01-13T06:34:24;16.53;;;2.30;;
19043;SDS011;9654;52.302;8.120;2023-01-13T06:36:52;8.60;;;2.40;;
19043;SDS011;9654;52.302;8.120;2023-01-13T06:39:20;12.50;;;2.63;;
19043;SDS011;9654;52.302;8.120;2023-01-13T06:41:49;13.87;;;2.17;;
19043;SDS011;9654;52.302;8.120;2023-01-13T06:44:36;12.37;;;1.90;;
19043;SDS011;9654;52.302;8.120;2023-01-13T06:47:03;17.70;;;3.00;;
19043;SDS011;9654;52.302;8.120;2023-01-13T06:49:30;11.17;;;2.33;;
19043;SDS011;9654;52.302;8.120;2023-01-13T06:51:58;11.07;;;2.97;;
19043;SDS011;9654;52.302;8.120;2023-01-13T06:54:25;11.03;;;2.50;;
19043;SDS011;9654;52.302;8.120;2023-01-13T06:56:51;11.67;;;1.93;;
19043;SDS011;9654;52.302;8.120;2023-01-13T06:59:18;11.57;;;2.20;;
19043;SDS011;9654;52.302;8.120;2023-01-13T07:01:46;16.20;;;3.17;;
19043;SDS011;9654;52.302;8.120;2023-01-13T07:04:13;7.43;;;1.80;;
19043;SDS011;9654;52.302;8.120;2023-01-13T07:06:40;9.13;;;1.57;;
19043;SDS011;9654;52.302;8.120;2023-01-13T07:09:08;8.23;;;1.83;;
19043;SDS011;9654;52.302;8.120;2023-01-13T07:11:35;8.90;;;2.43;;
19043;SDS011;9654;52.302;8.120;2023-01-13T07:14:01;8.20;;;2.10;;
19043;SDS011;9654;52.302;8.120;2023-01-13T07:16:46;18.50;;;1.97;;
19043;SDS011;9654;52.302;8.120;2023-01-13T07:19:12;10.03;;;3.00;;
19043;SDS011;9654;52.302;8.120;2023-01-13T07:21:39;14.70;;;2.90;;
19043;SDS011;9654;52.302;8.120;2023-01-13T07:24:08;7.20;;;1.80;;
19043;SDS011;9654;52.302;8.120;2023-01-13T07:26:34;9.37;;;1.87;;
19043;SDS011;9654;52.302;8.120;2023-01-13T07:29:02;14.50;;;2.23;;
19043;SDS011;9654;52.302;8.120;2023-01-13T07:31:28;8.27;;;2.10;;
19043;SDS011;9654;52.302;8.120;2023-01-13T07:33:55;12.13;;;2.83;;
19043;SDS011;9654;52.302;8.120;2023-01-13T07:36:22;13.30;;;2.30;;
19043;SDS011;9654;52.302;8.120;2023-01-13T07:38:49;11.97;;;2.60;;
19043;SDS011;9654;52.302;8.120;2023-01-13T07:41:17;17.97;;;2.43;;
19043;SDS011;9654;52.302;8.120;2023-01-13T07:44:02;17.40;;;3.60;;
19043;SDS011;9654;52.302;8.120;2023-01-13T07:46:30;14.27;;;2.53;;
19043;SDS011;9654;52.302;8.120;2023-01-13T07:48:57;17.43;;;3.60;;
19043;SDS011;9654;52.302;8.120;2023-01-13T07:51:23;13.40;;;2.00;;
19043;SDS011;9654;52.302;8.120;2023-01-13T07:53:50;18.30;;;3.73;;
19043;SDS011;9654;52.302;8.120;2023-01-13T07:56:18;13.10;;;2.20;;
19043;SDS011;9654;52.302;8.120;2023-01-13T07:58:46;17.43;;;2.83;;
19043;SDS011;9654;52.302;8.120;2023-01-13T08:01:15;17.97;;;3.93;;
19043;SDS011;9654;52.302;8.120;2023-01-13T08:03:43;10.00;;;2.53;;
19043;SDS011;9654;52.302;8.120;2023-01-13T08:06:10;13.77;;;2.20;;
19043;SDS011;9654;52.302;8.120;2023-01-13T08:08:38;14.57;;;2.83;;
19043;SDS011;9654;52.302;8.120;2023-01-13T08:11:05;13.80;;;2.67;;
19043;SDS011;9654;52.302;8.120;2023-01-13T08:13:34;20.17;;;2.60;;
19043;SDS011;9654;52.302;8.120;2023-01-13T08:16:02;12.77;;;2.70;;
19043;SDS011;9654;52.302;8.120;2023-01-13T08:18:30;12.67;;;3.37;;
19043;SDS011;9654;52.302;8.120;2023-01-13T08:21:00;8.37;;;2.13;;
19043;SDS011;9654;52.302;8.120;2023-01-13T08:23:27;17.33;;;3.10;;
19043;SDS011;9654;52.302;8.120;2023-01-13T08:25:58;10.47;;;2.53;;
19043;SDS011;9654;52.302;8.120;2023-01-13T08:28:25;16.97;;;2.80;;
19043;SDS011;9654;52.302;8.120;2023-01-13T08:30:53;17.70;;;3.07;;
19043;SDS011;9654;52.302;8.120;2023-01-13T08:33:20;16.47;;;2.43;;
19043;SDS011;9654;52.302;8.120;2023-01-13T08:35:47;12.07;;;2.10;;
19043;SDS011;9654;52.302;8.120;2023-01-13T08:38:16;14.63;;;2.57;;
19043;SDS011;9654;52.302;8.120;2023-01-13T08:40:43;11.27;;;2.73;;
19043;SDS011;9654;52.302;8.120;2023-01-13T08:43:10;19.37;;;3.17;;
19043;SDS011;9654;52.302;8.120;2023-01-13T08:45:37;11.27;;;2.63;;
19043;SDS011;9654;52.302;8.120;2023-01-13T08:48:05;12.60;;;3.37;;
19043;SDS011;9654;52.302;8.120;2023-01-13T08:50:33;10.67;;;2.67;;
19043;SDS011;9654;52.302;8.120;2023-01-13T08:53:00;12.97;;;2.97;;
19043;SDS011;9654;52.302;8.120;2023-01-13T08:55:27;11.97;;;2.27;;
19043;SDS011;9654;52.302;8.120;2023-01-13T08:57:53;18.37;;;3.10;;
19043;SDS011;9654;52.302;8.120;2023-01-13T09:00:20;15.60;;;2.60;;
19043;SDS011;9654;52.302;8.120;2023-01-13T09:02:47;14.40;;;3.53;;
19043;SDS011;9654;52.302;8.120;2023-01-13T09:05:15;10.57;;;2.50;;
19043;SDS011;9654;52.302;8.120;2023-01-13T09:07:43;10.43;;;2.23;;
19043;SDS011;9654;52.302;8.120;2023-01-13T09:10:09;17.13;;;2.80;;
19043;SDS011;9654;52.302;8.120;2023-01-13T09:12:36;13.13;;;2.73;;
19043;SDS011;9654;52.302;8.120;2023-01-13T09:15:21;13.83;;;3.27;;
19043;SDS011;9654;52.302;8.120;2023-01-13T09:17:48;15.87;;;2.30;;
19043;SDS011;9654;52.302;8.120;2023-01-13T09:20:16;15.37;;;2.57;;
19043;SDS011;9654;52.302;8.120;2023-01-13T09:22:43;25.90;;;3.30;;
19043;SDS011;9654;52.302;8.120;2023-01-13T09:25:10;12.47;;;2.73;;
19043;SDS011;9654;52.302;8.120;2023-01-13T09:27:37;14.37;;;3.50;;
19043;SDS011;9654;52.302;8.120;2023-01-13T09:30:05;15.23;;;3.67;;
19043;SDS011;9654;52.302;8.120;2023-01-13T09:32:32;17.03;;;2.73;;
19043;SDS011;9654;52.302;8.120;2023-01-13T09:34:59;21.20;;;3.87;;
19043;SDS011;9654;52.302;8.120;2023-01-13T09:37:27;13.47;;;2.80;;
19043;SDS011;9654;52.302;8.120;2023-01-13T09:39:54;18.40;;;2.63;;
19043;SDS011;9654;52.302;8.120;2023-01-13T09:42:24;18.37;;;3.20;;
19043;SDS011;9654;52.302;8.120;2023-01-13T09:45:15;16.23;;;3.13;;
19043;SDS011;9654;52.302;8.120;2023-01-13T09:47:48;10.83;;;2.47;;
19043;SDS011;9654;52.302;8.120;2023-01-13T09:53:18;18.50;;;3.70;;
19043;SDS011;9654;52.302;8.120;2023-01-13T09:55:50;13.33;;;3.00;;
19043;SDS011;9654;52.302;8.120;2023-01-13T09:58:18;15.20;;;2.93;;
19043;SDS011;9654;52.302;8.120;2023-01-13T10:00:47;17.07;;;3.03;;
19043;SDS011;9654;52.302;8.120;2023-01-13T10:03:23;16.27;;;4.13;;
19043;SDS011;9654;52.302;8.120;2023-01-13T10:05:55;19.53;;;3.47;;
19043;SDS011;9654;52.302;8.120;2023-01-13T10:08:30;13.40;;;3.23;;
19043;SDS011;9654;52.302;8.120;2023-01-13T10:11:00;15.03;;;2.43;;
19043;SDS011;9654;52.302;8.120;2023-01-13T10:13:52;16.23;;;3.70;;
19043;SDS011;9654;52.302;8.120;2023-01-13T10:16:24;15.27;;;2.93;;
19043;SDS011;9654;52.302;8.120;2023-01-13T10:18:59;19.03;;;3.70;;
19043;SDS011;9654;52.302;8.120;2023-01-13T10:24:32;13.03;;;3.03;;
19043;SDS011;9654;52.302;8.120;2023-01-13T10:27:22;14.20;;;3.10;;
19043;SDS011;9654;52.302;8.120;2023-01-13T10:29:54;17.67;;;3.40;;
19043;SDS011;9654;52.302;8.120;2023-01-13T10:32:21;13.57;;;3.03;;
19043;SDS011;9654;52.302;8.120;2023-01-13T10:34:49;29.97;;;3.87;;
19043;SDS011;9654;52.302;8.120;2023-01-13T10:37:22;18.50;;;4.00;;
19043;SDS011;9654;52.302;8.120;2023-01-13T10:39:53;11.87;;;2.80;;
19043;SDS011;9654;52.302;8.120;2023-01-13T10:42:21;16.47;;;3.23;;
19043;SDS011;9654;52.302;8.120;2023-01-13T10:44:50;11.93;;;2.80;;
19043;SDS011;9654;52.302;8.120;2023-01-13T10:47:19;11.83;;;2.63;;
19043;SDS011;9654;52.302;8.120;2023-01-13T10:52:54;20.13;;;3.60;;
19043;SDS011;9654;52.302;8.120;2023-01-13T10:55:28;21.20;;;3.53;;
19043;SDS011;9654;52.302;8.120;2023-01-13T10:57:57;14.53;;;2.80;;
19043;SDS011;9654;52.302;8.120;2023-01-13T11:00:37;12.60;;;3.63;;
19043;SDS011;9654;52.302;8.120;2023-01-13T11:03:11;10.30;;;3.30;;
19043;SDS011;9654;52.302;8.120;2023-01-13T11:05:46;15.43;;;3.60;;
19043;SDS011;9654;52.302;8.120;2023-01-13T11:08:15;16.93;;;3.87;;
19043;SDS011;9654;52.302;8.120;2023-01-13T11:10:45;18.13;;;3.13;;
19043;SDS011;9654;52.302;8.120;2023-01-13T11:13:14;19.67;;;3.63;;
19043;SDS011;9654;52.302;8.120;2023-01-13T11:15:44;17.47;;;3.50;;
19043;SDS011;9654;52.302;8.120;2023-01-13T11:18:18;16.20;;;2.83;;
19043;SDS011;9654;52.302;8.120;2023-01-13T11:20:51;16.30;;;3.13;;
19043;SDS011;9654;52.302;8.120;2023-01-13T11:23:20;17.40;;;3.93;;
19043;SDS011;9654;52.302;8.120;2023-01-13T11:25:53;15.67;;;2.93;;
19043;SDS011;9654;52.302;8.120;2023-01-13T11:28:33;24.70;;;3.80;;
19043;SDS011;9654;52.302;8.120;2023-01-13T11:31:07;16.23;;;2.57;;
19043;SDS011;9654;52.302;8.120;2023-01-13T11:33:40;21.60;;;3.43;;
19043;SDS011;9654;52.302;8.120;2023-01-13T11:36:10;13.20;;;3.00;;
19043;SDS011;9654;52.302;8.120;2023-01-13T11:38:42;13.23;;;3.17;;
19043;SDS011;9654;52.302;8.120;2023-01-13T11:41:16;23.50;;;3.80;;
19043;SDS011;9654;52.302;8.120;2023-01-13T11:43:50;16.73;;;3.13;;
19043;SDS011;9654;52.302;8.120;2023-01-13T11:46:20;16.93;;;3.07;;
19043;SDS011;9654;52.302;8.120;2023-01-13T11:48:51;18.90;;;3.00;;
19043;SDS011;9654;52.302;8.120;2023-01-13T11:51:23;16.70;;;3.53;;
19043;SDS011;9654;52.302;8.120;2023-01-13T11:54:06;18.27;;;3.00;;
19043;SDS011;9654;52.302;8.120;2023-01-13T11:57:02;14.90;;;3.70;;
19043;SDS011;9654;52.302;8.120;2023-01-13T11:59:55;9.97;;;2.80;;
19043;SDS011;9654;52.302;8.120;2023-01-13T12:02:43;16.83;;;2.90;;
19043;SDS011;9654;52.302;8.120;2023-01-13T12:05:18;19.93;;;2.80;;
19043;SDS011;9654;52.302;8.120;2023-01-13T12:07:52;12.23;;;2.73;;
19043;SDS011;9654;52.302;8.120;2023-01-13T12:10:31;11.87;;;2.77;;
19043;SDS011;9654;52.302;8.120;2023-01-13T12:13:10;9.73;;;2.83;;
19043;SDS011;9654;52.302;8.120;2023-01-13T12:15:56;12.63;;;2.30;;
19043;SDS011;9654;52.302;8.120;2023-01-13T12:18:50;10.97;;;2.63;;
19043;SDS011;9654;52.302;8.120;2023-01-13T12:21:31;9.00;;;2.83;;
19043;SDS011;9654;52.302;8.120;2023-01-13T12:24:04;10.00;;;2.67;;
19043;SDS011;9654;52.302;8.120;2023-01-13T12:26:39;11.37;;;2.67;;
19043;SDS011;9654;52.302;8.120;2023-01-13T12:29:10;12.93;;;2.57;;
19043;SDS011;9654;52.302;8.120;2023-01-13T12:31:39;13.33;;;2.77;;
19043;SDS011;9654;52.302;8.120;2023-01-13T12:37:00;18.27;;;3.00;;
19043;SDS011;9654;52.302;8.120;2023-01-13T12:39:36;11.93;;;2.60;;
19043;SDS011;9654;52.302;8.120;2023-01-13T12:42:13;12.33;;;2.87;;
19043;SDS011;9654;52.302;8.120;2023-01-13T12:47:50;19.07;;;3.33;;
19043;SDS011;9654;52.302;8.120;2023-01-13T13:02:25;9.37;;;2.57;;
19043;SDS011;9654;52.302;8.120;2023-01-13T13:04:54;15.67;;;3.00;;
19043;SDS011;9654;52.302;8.120;2023-01-13T13:07:25;15.43;;;3.53;;
19043;SDS011;9654;52.302;8.120;2023-01-13T13:10:01;14.03;;;4.00;;
19043;SDS011;9654;52.302;8.120;2023-01-13T13:12:57;10.90;;;2.70;;
19043;SDS011;9654;52.302;8.120;2023-01-13T13:15:42;6.83;;;2.30;;
19043;SDS011;9654;52.302;8.120;2023-01-13T13:18:27;14.50;;;2.87;;
19043;SDS011;9654;52.302;8.120;2023-01-13T13:21:04;11.77;;;2.30;;
19043;SDS011;9654;52.302;8.120;2023-01-13T13:23:56;15.80;;;2.90;;
19043;SDS011;9654;52.302;8.120;2023-01-13T13:26:36;21.20;;;3.30;;
19043;SDS011;9654;52.302;8.120;2023-01-13T13:32:06;13.63;;;2.80;;
19043;SDS011;9654;52.302;8.120;2023-01-13T13:34:48;11.23;;;2.13;;
19043;SDS011;9654;52.302;8.120;2023-01-13T13:37:32;8.73;;;2.83;;
19043;SDS011;9654;52.302;8.120;2023-01-13T13:40:20;9.73;;;2.37;;
19043;SDS011;9654;52.302;8.120;2023-01-13T13:43:06;17.93;;;2.93;;
19043;SDS011;9654;52.302;8.120;2023-01-13T13:45:55;15.13;;;3.03;;
19043;SDS011;9654;52.302;8.120;2023-01-13T13:48:48;11.83;;;2.97;;
19043;SDS011;9654;52.302;8.120;2023-01-13T13:51:21;11.90;;;2.60;;
19043;SDS011;9654;52.302;8.120;2023-01-13T13:53:52;10.27;;;2.43;;
19043;SDS011;9654;52.302;8.120;2023-01-13T13:56:23;12.17;;;2.73;;
19043;SDS011;9654;52.302;8.120;2023-01-13T13:58:52;5.57;;;2.33;;
19043;SDS011;9654;52.302;8.120;2023-01-13T14:01:20;18.50;;;2.50;;
19043;SDS011;9654;52.302;8.120;2023-01-13T14:04:01;11.63;;;3.07;;
19043;SDS011;9654;52.302;8.120;2023-01-13T14:06:32;13.07;;;2.47;;
19043;SDS011;9654;52.302;8.120;2023-01-13T14:08:59;10.80;;;3.00;;
19043;SDS011;9654;52.302;8.120;2023-01-13T14:11:28;13.97;;;2.43;;
19043;SDS011;9654;52.302;8.120;2023-01-13T14:14:00;9.20;;;2.90;;
19043;SDS011;9654;52.302;8.120;2023-01-13T14:16:28;9.70;;;2.30;;
19043;SDS011;9654;52.302;8.120;2023-01-13T14:18:56;11.77;;;2.80;;
19043;SDS011;9654;52.302;8.120;2023-01-13T14:21:25;16.13;;;3.00;;
19043;SDS011;9654;52.302;8.120;2023-01-13T14:23:54;14.40;;;2.83;;
19043;SDS011;9654;52.302;8.120;2023-01-13T14:26:25;9.77;;;2.07;;
19043;SDS011;9654;52.302;8.120;2023-01-13T14:28:53;13.43;;;3.53;;
19043;SDS011;9654;52.302;8.120;2023-01-13T14:31:21;8.27;;;2.30;;
19043;SDS011;9654;52.302;8.120;2023-01-13T14:33:49;16.13;;;2.90;;
19043;SDS011;9654;52.302;8.120;2023-01-13T14:36:19;12.60;;;2.70;;
19043;SDS011;9654;52.302;8.120;2023-01-13T14:38:47;15.33;;;4.73;;
19043;SDS011;9654;52.302;8.120;2023-01-13T14:41:37;8.07;;;2.37;;
19043;SDS011;9654;52.302;8.120;2023-01-13T14:44:12;10.83;;;3.40;;
19043;SDS011;9654;52.302;8.120;2023-01-13T14:46:47;12.33;;;2.97;;
19043;SDS011;9654;52.302;8.120;2023-01-13T14:49:15;10.07;;;2.50;;
19043;SDS011;9654;52.302;8.120;2023-01-13T14:51:48;10.77;;;2.83;;
19043;SDS011;9654;52.302;8.120;2023-01-13T14:57:14;9.97;;;2.23;;
19043;SDS011;9654;52.302;8.120;2023-01-13T14:59:48;21.30;;;2.83;;
19043;SDS011;9654;52.302;8.120;2023-01-13T15:05:27;11.13;;;2.67;;
19043;SDS011;9654;52.302;8.120;2023-01-13T15:07:59;8.67;;;1.93;;
19043;SDS011;9654;52.302;8.120;2023-01-13T15:10:30;10.43;;;2.57;;
19043;SDS011;9654;52.302;8.120;2023-01-13T15:13:00;9.70;;;2.80;;
19043;SDS011;9654;52.302;8.120;2023-01-13T15:15:28;12.87;;;2.67;;
19043;SDS011;9654;52.302;8.120;2023-01-13T15:17:57;14.07;;;3.30;;
19043;SDS011;9654;52.302;8.120;2023-01-13T15:20:25;10.63;;;2.13;;
19043;SDS011;9654;52.302;8.120;2023-01-13T15:22:53;12.77;;;3.00;;
19043;SDS011;9654;52.302;8.120;2023-01-13T15:25:21;19.50;;;2.97;;
19043;SDS011;9654;52.302;8.120;2023-01-13T15:27:49;13.57;;;2.50;;
19043;SDS011;9654;52.302;8.120;2023-01-13T15:30:19;9.40;;;2.47;;
19043;SDS011;9654;52.302;8.120;2023-01-13T15:32:49;13.00;;;4.60;;
19043;SDS011;9654;52.302;8.120;2023-01-13T15:35:16;13.07;;;2.83;;
19043;SDS011;9654;52.302;8.120;2023-01-13T15:37:43;12.80;;;2.87;;
19043;SDS011;9654;52.302;8.120;2023-01-13T15:40:12;10.53;;;2.43;;
19043;SDS011;9654;52.302;8.120;2023-01-13T15:42:41;14.17;;;3.23;;
19043;SDS011;9654;52.302;8.120;2023-01-13T15:45:27;14.67;;;3.03;;
19043;SDS011;9654;52.302;8.120;2023-01-13T15:48:13;15.17;;;3.17;;
19043;SDS011;9654;52.302;8.120;2023-01-13T15:50:39;18.33;;;3.53;;
19043;SDS011;9654;52.302;8.120;2023-01-13T15:53:06;20.60;;;5.93;;
19043;SDS011;9654;52.302;8.120;2023-01-13T15:55:36;20.63;;;3.37;;
19043;SDS011;9654;52.302;8.120;2023-01-13T15:58:03;17.47;;;5.10;;
19043;SDS011;9654;52.302;8.120;2023-01-13T16:00:32;17.53;;;3.17;;